sensor_id;sensor_type;location;lat;lon;timestamp;temperature;humidity
63202;DHT22;49296;48.188;11.566;2023-02-19T00:00:11;11.49;64.61
63202;DHT22;49296;48.188;11.566;2023-02-19T00:02:40;11.46;64.84
63202;DHT22;49296;48.188;11.566;2023-02-19T00:05:07;11.49;64.77
63202;DHT22;49296;48.188;11.566;2023-02-19T00:07:34;11.52;64.68
63202;DHT22;49296;48.188;11.566;2023-02-19T00:10:01;11.48;64.96
63202;DHT22;49296;48.188;11.566;2023-02-19T00:12:29;11.49;64.91
63202;DHT22;49296;48.188;11.566;2023-02-19T00:14:57;11.48;64.88
63202;DHT22;49296;48.188;11.566;2023-02-19T00:17:23;11.48;64.92
63202;DHT22;49296;48.188;11.566;2023-02-19T00:19:50;11.41;65.13
63202;DHT22;49296;48.188;11.566;2023-02-19T00:22:17;11.49;65.10
63202;DHT22;49296;48.188;11.566;2023-02-19T00:24:43;11.42;65.10
63202;DHT22;49296;48.188;11.566;2023-02-19T00:27:10;11.31;65.49
63202;DHT22;49296;48.188;11.566;2023-02-19T00:29:37;11.48;65.05
63202;DHT22;49296;48.188;11.566;2023-02-19T00:32:05;11.35;65.52
63202;DHT22;49296;48.188;11.566;2023-02-19T00:34:32;11.34;65.47
63202;DHT22;49296;48.188;11.566;2023-02-19T00:36:58;11.38;65.38
63202;DHT22;49296;48.188;11.566;2023-02-19T00:39:25;11.42;65.32
63202;DHT22;49296;48.188;11.566;2023-02-19T00:41:52;11.38;65.31
63202;DHT22;49296;48.188;11.566;2023-02-19T00:44:18;11.35;65.58
63202;DHT22;49296;48.188;11.566;2023-02-19T00:46:46;11.35;65.51
63202;DHT22;49296;48.188;11.566;2023-02-19T00:49:17;11.32;65.58
63202;DHT22;49296;48.188;11.566;2023-02-19T00:51:43;11.24;65.92
63202;DHT22;49296;48.188;11.566;2023-02-19T00:54:11;11.30;65.66
63202;DHT22;49296;48.188;11.566;2023-02-19T00:56:38;11.28;65.55
63202;DHT22;49296;48.188;11.566;2023-02-19T00:59:04;11.31;65.67
63202;DHT22;49296;48.188;11.566;2023-02-19T01:01:31;11.32;65.52
63202;DHT22;49296;48.188;11.566;2023-02-19T01:03:58;11.32;65.45
63202;DHT22;49296;48.188;11.566;2023-02-19T01:06:26;11.31;65.51
63202;DHT22;49296;48.188;11.566;2023-02-19T01:08:54;11.25;65.69
63202;DHT22;49296;48.188;11.566;2023-02-19T01:11:21;11.30;65.49
63202;DHT22;49296;48.188;11.566;2023-02-19T01:13:47;11.30;65.62
63202;DHT22;49296;48.188;11.566;2023-02-19T01:16:16;11.36;65.33
63202;DHT22;49296;48.188;11.566;2023-02-19T01:18:44;11.41;65.18
63202;DHT22;49296;48.188;11.566;2023-02-19T01:21:14;11.41;65.24
63202;DHT22;49296;48.188;11.566;2023-02-19T01:23:42;11.28;65.61
63202;DHT22;49296;48.188;11.566;2023-02-19T01:26:11;11.27;65.65
63202;DHT22;49296;48.188;11.566;2023-02-19T01:28:38;11.30;65.70
63202;DHT22;49296;48.188;11.566;2023-02-19T01:31:06;11.18;66.25
63202;DHT22;49296;48.188;11.566;2023-02-19T01:33:33;11.20;66.19
63202;DHT22;49296;48.188;11.566;2023-02-19T01:36:02;11.27;65.94
63202;DHT22;49296;48.188;11.566;2023-02-19T01:38:28;11.21;66.33
63202;DHT22;49296;48.188;11.566;2023-02-19T01:40:58;11.25;66.36
63202;DHT22;49296;48.188;11.566;2023-02-19T01:43:24;11.34;66.09
63202;DHT22;49296;48.188;11.566;2023-02-19T01:45:51;11.39;65.66
63202;DHT22;49296;48.188;11.566;2023-02-19T01:48:20;11.35;65.77
63202;DHT22;49296;48.188;11.566;2023-02-19T01:50:50;11.23;65.99
63202;DHT22;49296;48.188;11.566;2023-02-19T01:53:21;11.28;65.92
63202;DHT22;49296;48.188;11.566;2023-02-19T01:55:51;11.28;66.04
63202;DHT22;49296;48.188;11.566;2023-02-19T01:58:22;11.28;66.27
63202;DHT22;49296;48.188;11.566;2023-02-19T02:00:49;11.23;66.95
63202;DHT22;49296;48.188;11.566;2023-02-19T02:03:16;11.08;68.87
63202;DHT22;49296;48.188;11.566;2023-02-19T02:05:47;11.03;68.84
63202;DHT22;49296;48.188;11.566;2023-02-19T02:08:16;10.96;69.87
63202;DHT22;49296;48.188;11.566;2023-02-19T02:11:01;10.97;69.69
63202;DHT22;49296;48.188;11.566;2023-02-19T02:13:32;10.93;69.76
63202;DHT22;49296;48.188;11.566;2023-02-19T02:16:05;10.97;68.76
63202;DHT22;49296;48.188;11.566;2023-02-19T02:18:43;11.03;68.78
63202;DHT22;49296;48.188;11.566;2023-02-19T02:21:48;10.95;69.07
63202;DHT22;49296;48.188;11.566;2023-02-19T02:27:26;10.92;69.81
63202;DHT22;49296;48.188;11.566;2023-02-19T02:30:14;10.76;70.42
63202;DHT22;49296;48.188;11.566;2023-02-19T02:32:48;10.77;70.58
63202;DHT22;49296;48.188;11.566;2023-02-19T02:35:20;10.79;70.62
63202;DHT22;49296;48.188;11.566;2023-02-19T02:37:48;10.79;70.38
63202;DHT22;49296;48.188;11.566;2023-02-19T02:40:17;10.73;70.42
63202;DHT22;49296;48.188;11.566;2023-02-19T02:42:44;10.79;70.02
63202;DHT22;49296;48.188;11.566;2023-02-19T02:45:29;10.72;70.71
63202;DHT22;49296;48.188;11.566;2023-02-19T02:48:08;10.65;71.66
63202;DHT22;49296;48.188;11.566;2023-02-19T02:50:39;10.52;72.42
63202;DHT22;49296;48.188;11.566;2023-02-19T02:53:11;10.46;73.88
63202;DHT22;49296;48.188;11.566;2023-02-19T02:55:57;10.16;75.71
63202;DHT22;49296;48.188;11.566;2023-02-19T02:58:26;9.96;76.62
63202;DHT22;49296;48.188;11.566;2023-02-19T03:00:58;9.93;77.84
63202;DHT22;49296;48.188;11.566;2023-02-19T03:03:46;9.72;77.77
63202;DHT22;49296;48.188;11.566;2023-02-19T03:06:16;9.78;78.05
63202;DHT22;49296;48.188;11.566;2023-02-19T03:08:47;9.68;78.54
63202;DHT22;49296;48.188;11.566;2023-02-19T03:11:14;9.71;78.33
63202;DHT22;49296;48.188;11.566;2023-02-19T03:14:03;9.78;78.21
63202;DHT22;49296;48.188;11.566;2023-02-19T03:16:54;9.86;77.77
63202;DHT22;49296;48.188;11.566;2023-02-19T03:19:42;9.85;78.40
63202;DHT22;49296;48.188;11.566;2023-02-19T03:22:13;9.82;78.63
63202;DHT22;49296;48.188;11.566;2023-02-19T03:24:41;9.62;78.71
63202;DHT22;49296;48.188;11.566;2023-02-19T03:27:27;9.59;79.15
63202;DHT22;49296;48.188;11.566;2023-02-19T03:29:57;9.61;79.25
63202;DHT22;49296;48.188;11.566;2023-02-19T03:32:28;9.54;79.00
63202;DHT22;49296;48.188;11.566;2023-02-19T03:35:00;9.54;79.32
63202;DHT22;49296;48.188;11.566;2023-02-19T03:37:29;9.56;78.66
63202;DHT22;49296;48.188;11.566;2023-02-19T03:39:58;9.42;79.58
63202;DHT22;49296;48.188;11.566;2023-02-19T03:42:32;9.55;79.39
63202;DHT22;49296;48.188;11.566;2023-02-19T03:45:19;9.30;79.63
63202;DHT22;49296;48.188;11.566;2023-02-19T03:47:54;9.34;80.78
63202;DHT22;49296;48.188;11.566;2023-02-19T03:50:23;9.32;79.87
63202;DHT22;49296;48.188;11.566;2023-02-19T03:52:59;9.26;80.49
63202;DHT22;49296;48.188;11.566;2023-02-19T03:55:32;9.32;79.85
63202;DHT22;49296;48.188;11.566;2023-02-19T03:58:05;9.32;79.19
63202;DHT22;49296;48.188;11.566;2023-02-19T04:00:38;9.23;80.53
63202;DHT22;49296;48.188;11.566;2023-02-19T04:03:13;9.10;80.25
63202;DHT22;49296;48.188;11.566;2023-02-19T04:05:46;9.19;80.44
63202;DHT22;49296;48.188;11.566;2023-02-19T04:08:14;9.26;80.52
63202;DHT22;49296;48.188;11.566;2023-02-19T04:10:43;9.13;80.34
63202;DHT22;49296;48.188;11.566;2023-02-19T04:13:15;9.14;79.79
63202;DHT22;49296;48.188;11.566;2023-02-19T04:15:45;9.09;80.17
63202;DHT22;49296;48.188;11.566;2023-02-19T04:18:15;9.24;79.08
63202;DHT22;49296;48.188;11.566;2023-02-19T04:20:45;9.19;79.38
63202;DHT22;49296;48.188;11.566;2023-02-19T04:23:13;9.14;79.38
63202;DHT22;49296;48.188;11.566;2023-02-19T04:25:44;9.07;80.01
63202;DHT22;49296;48.188;11.566;2023-02-19T04:28:12;9.14;79.61
63202;DHT22;49296;48.188;11.566;2023-02-19T04:30:41;9.10;79.60
63202;DHT22;49296;48.188;11.566;2023-02-19T04:33:08;9.10;79.81
63202;DHT22;49296;48.188;11.566;2023-02-19T04:35:36;9.04;79.70
63202;DHT22;49296;48.188;11.566;2023-02-19T04:38:02;8.97;79.71
63202;DHT22;49296;48.188;11.566;2023-02-19T04:40:29;9.06;79.36
63202;DHT22;49296;48.188;11.566;2023-02-19T04:42:55;9.00;79.23
63202;DHT22;49296;48.188;11.566;2023-02-19T04:45:22;8.97;79.15
63202;DHT22;49296;48.188;11.566;2023-02-19T04:47:49;9.02;79.04
63202;DHT22;49296;48.188;11.566;2023-02-19T04:50:15;9.09;78.88
63202;DHT22;49296;48.188;11.566;2023-02-19T04:52:44;9.09;78.61
63202;DHT22;49296;48.188;11.566;2023-02-19T04:55:10;9.00;78.63
63202;DHT22;49296;48.188;11.566;2023-02-19T04:57:37;9.04;78.67
63202;DHT22;49296;48.188;11.566;2023-02-19T05:00:05;9.06;78.46
63202;DHT22;49296;48.188;11.566;2023-02-19T05:02:32;9.02;78.50
63202;DHT22;49296;48.188;11.566;2023-02-19T05:04:59;9.03;78.40
63202;DHT22;49296;48.188;11.566;2023-02-19T05:07:25;9.09;78.35
63202;DHT22;49296;48.188;11.566;2023-02-19T05:09:54;9.14;78.20
63202;DHT22;49296;48.188;11.566;2023-02-19T05:12:21;9.04;78.27
63202;DHT22;49296;48.188;11.566;2023-02-19T05:14:48;9.04;78.30
63202;DHT22;49296;48.188;11.566;2023-02-19T05:17:15;9.03;78.25
63202;DHT22;49296;48.188;11.566;2023-02-19T05:19:41;9.04;78.21
63202;DHT22;49296;48.188;11.566;2023-02-19T05:22:08;8.97;78.18
63202;DHT22;49296;48.188;11.566;2023-02-19T05:24:35;9.02;78.29
63202;DHT22;49296;48.188;11.566;2023-02-19T05:27:05;9.02;78.11
63202;DHT22;49296;48.188;11.566;2023-02-19T05:29:32;9.00;78.50
63202;DHT22;49296;48.188;11.566;2023-02-19T05:31:59;9.06;77.97
63202;DHT22;49296;48.188;11.566;2023-02-19T05:34:26;9.19;77.53
63202;DHT22;49296;48.188;11.566;2023-02-19T05:36:52;9.16;77.64
63202;DHT22;49296;48.188;11.566;2023-02-19T05:39:19;9.23;77.23
63202;DHT22;49296;48.188;11.566;2023-02-19T05:41:46;9.23;77.41
63202;DHT22;49296;48.188;11.566;2023-02-19T05:44:14;9.23;77.45
63202;DHT22;49296;48.188;11.566;2023-02-19T05:46:40;9.16;77.67
63202;DHT22;49296;48.188;11.566;2023-02-19T05:49:07;9.26;77.20
63202;DHT22;49296;48.188;11.566;2023-02-19T05:51:34;9.16;77.35
63202;DHT22;49296;48.188;11.566;2023-02-19T05:54:00;9.16;77.44
63202;DHT22;49296;48.188;11.566;2023-02-19T05:56:31;9.24;77.08
63202;DHT22;49296;48.188;11.566;2023-02-19T05:58:58;9.17;77.35
63202;DHT22;49296;48.188;11.566;2023-02-19T06:01:28;9.23;77.30
63202;DHT22;49296;48.188;11.566;2023-02-19T06:03:55;9.28;77.20
63202;DHT22;49296;48.188;11.566;2023-02-19T06:06:22;9.14;77.40
63202;DHT22;49296;48.188;11.566;2023-02-19T06:08:49;9.19;77.29
63202;DHT22;49296;48.188;11.566;2023-02-19T06:11:16;9.26;77.10
63202;DHT22;49296;48.188;11.566;2023-02-19T06:13:43;9.24;77.08
63202;DHT22;49296;48.188;11.566;2023-02-19T06:19:33;9.32;76.51
63202;DHT22;49296;48.188;11.566;2023-02-19T06:21:59;9.27;76.60
63202;DHT22;49296;48.188;11.566;2023-02-19T06:24:26;9.23;76.90
63202;DHT22;49296;48.188;11.566;2023-02-19T06:26:53;9.28;76.43
63202;DHT22;49296;48.188;11.566;2023-02-19T06:29:19;9.21;76.26
63202;DHT22;49296;48.188;11.566;2023-02-19T06:31:46;9.26;76.41
63202;DHT22;49296;48.188;11.566;2023-02-19T06:34:12;9.30;76.19
63202;DHT22;49296;48.188;11.566;2023-02-19T06:36:41;9.27;76.17
63202;DHT22;49296;48.188;11.566;2023-02-19T06:39:10;9.26;76.22
63202;DHT22;49296;48.188;11.566;2023-02-19T06:41:37;9.32;76.02
63202;DHT22;49296;48.188;11.566;2023-02-19T06:44:04;9.35;75.86
63202;DHT22;49296;48.188;11.566;2023-02-19T06:46:30;9.42;75.74
63202;DHT22;49296;48.188;11.566;2023-02-19T06:48:57;9.44;75.66
63202;DHT22;49296;48.188;11.566;2023-02-19T06:51:24;9.51;75.58
63202;DHT22;49296;48.188;11.566;2023-02-19T06:53:52;9.41;75.91
63202;DHT22;49296;48.188;11.566;2023-02-19T06:56:24;9.51;75.64
63202;DHT22;49296;48.188;11.566;2023-02-19T06:58:51;9.47;75.89
63202;DHT22;49296;48.188;11.566;2023-02-19T07:01:18;9.37;75.97
63202;DHT22;49296;48.188;11.566;2023-02-19T07:03:45;9.45;75.74
63202;DHT22;49296;48.188;11.566;2023-02-19T07:06:11;9.58;75.59
63202;DHT22;49296;48.188;11.566;2023-02-19T07:08:38;9.52;75.45
63202;DHT22;49296;48.188;11.566;2023-02-19T07:11:06;9.49;75.49
63202;DHT22;49296;48.188;11.566;2023-02-19T07:13:33;9.49;75.72
63202;DHT22;49296;48.188;11.566;2023-02-19T07:16:01;9.44;75.78
63202;DHT22;49296;48.188;11.566;2023-02-19T07:18:29;9.51;75.87
63202;DHT22;49296;48.188;11.566;2023-02-19T07:21:01;9.55;75.61
63202;DHT22;49296;48.188;11.566;2023-02-19T07:23:28;9.47;75.70
63202;DHT22;49296;48.188;11.566;2023-02-19T07:25:54;9.51;75.57
63202;DHT22;49296;48.188;11.566;2023-02-19T07:28:22;9.44;75.88
63202;DHT22;49296;48.188;11.566;2023-02-19T07:30:49;9.42;76.19
63202;DHT22;49296;48.188;11.566;2023-02-19T07:33:16;9.44;76.50
63202;DHT22;49296;48.188;11.566;2023-02-19T07:35:44;9.54;75.95
63202;DHT22;49296;48.188;11.566;2023-02-19T07:38:14;9.54;76.14
63202;DHT22;49296;48.188;11.566;2023-02-19T07:40:41;9.66;76.02
63202;DHT22;49296;48.188;11.566;2023-02-19T07:43:07;9.58;76.17
63202;DHT22;49296;48.188;11.566;2023-02-19T07:45:35;9.56;76.32
63202;DHT22;49296;48.188;11.566;2023-02-19T07:48:03;9.54;76.42
63202;DHT22;49296;48.188;11.566;2023-02-19T07:50:29;9.49;76.84
63202;DHT22;49296;48.188;11.566;2023-02-19T07:52:56;9.49;77.49
63202;DHT22;49296;48.188;11.566;2023-02-19T07:55:23;9.34;78.61
63202;DHT22;49296;48.188;11.566;2023-02-19T07:57:49;9.34;78.75
63202;DHT22;49296;48.188;11.566;2023-02-19T08:00:16;9.32;78.89
63202;DHT22;49296;48.188;11.566;2023-02-19T08:02:48;9.42;78.65
63202;DHT22;49296;48.188;11.566;2023-02-19T08:05:37;9.35;78.34
63202;DHT22;49296;48.188;11.566;2023-02-19T08:08:05;9.41;78.17
63202;DHT22;49296;48.188;11.566;2023-02-19T08:10:32;9.38;77.93
63202;DHT22;49296;48.188;11.566;2023-02-19T08:13:17;9.38;77.74
63202;DHT22;49296;48.188;11.566;2023-02-19T08:15:48;9.42;77.66
63202;DHT22;49296;48.188;11.566;2023-02-19T08:18:17;9.44;77.07
63202;DHT22;49296;48.188;11.566;2023-02-19T08:20:45;9.51;77.28
63202;DHT22;49296;48.188;11.566;2023-02-19T08:23:11;9.52;76.94
63202;DHT22;49296;48.188;11.566;2023-02-19T08:25:39;9.72;76.78
63202;DHT22;49296;48.188;11.566;2023-02-19T08:28:08;9.66;76.59
63202;DHT22;49296;48.188;11.566;2023-02-19T08:30:35;9.68;76.59
63202;DHT22;49296;48.188;11.566;2023-02-19T08:33:04;9.78;76.41
63202;DHT22;49296;48.188;11.566;2023-02-19T08:35:34;9.52;76.67
63202;DHT22;49296;48.188;11.566;2023-02-19T08:38:02;9.68;76.40
63202;DHT22;49296;48.188;11.566;2023-02-19T08:40:30;9.69;75.92
63202;DHT22;49296;48.188;11.566;2023-02-19T08:43:01;9.72;75.80
63202;DHT22;49296;48.188;11.566;2023-02-19T08:45:28;9.63;75.67
63202;DHT22;49296;48.188;11.566;2023-02-19T08:47:54;9.81;74.96
63202;DHT22;49296;48.188;11.566;2023-02-19T08:50:21;9.69;74.80
63202;DHT22;49296;48.188;11.566;2023-02-19T08:52:49;9.79;74.25
63202;DHT22;49296;48.188;11.566;2023-02-19T08:55:16;9.79;73.70
63202;DHT22;49296;48.188;11.566;2023-02-19T08:57:43;9.73;73.64
63202;DHT22;49296;48.188;11.566;2023-02-19T09:00:10;9.76;73.77
63202;DHT22;49296;48.188;11.566;2023-02-19T09:02:37;9.68;74.26
63202;DHT22;49296;48.188;11.566;2023-02-19T09:05:05;9.69;73.94
63202;DHT22;49296;48.188;11.566;2023-02-19T09:07:31;9.71;74.08
63202;DHT22;49296;48.188;11.566;2023-02-19T09:10:00;9.69;73.62
63202;DHT22;49296;48.188;11.566;2023-02-19T09:12:29;9.72;73.69
63202;DHT22;49296;48.188;11.566;2023-02-19T09:14:57;9.92;73.03
63202;DHT22;49296;48.188;11.566;2023-02-19T09:17:24;9.96;72.64
63202;DHT22;49296;48.188;11.566;2023-02-19T09:19:51;10.14;72.44
63202;DHT22;49296;48.188;11.566;2023-02-19T09:22:18;10.04;72.69
63202;DHT22;49296;48.188;11.566;2023-02-19T09:24:45;9.72;68.90
63202;DHT22;49296;48.188;11.566;2023-02-19T09:27:16;9.61;67.91
63202;DHT22;49296;48.188;11.566;2023-02-19T09:29:43;9.48;67.10
63202;DHT22;49296;48.188;11.566;2023-02-19T09:32:10;9.34;68.01
63202;DHT22;49296;48.188;11.566;2023-02-19T09:34:37;9.30;68.08
63202;DHT22;49296;48.188;11.566;2023-02-19T09:37:04;9.31;68.44
63202;DHT22;49296;48.188;11.566;2023-02-19T09:39:31;9.32;68.24
63202;DHT22;49296;48.188;11.566;2023-02-19T09:42:01;9.16;68.76
63202;DHT22;49296;48.188;11.566;2023-02-19T09:44:33;9.09;69.43
63202;DHT22;49296;48.188;11.566;2023-02-19T09:47:02;9.19;69.40
63202;DHT22;49296;48.188;11.566;2023-02-19T09:49:33;9.31;68.84
63202;DHT22;49296;48.188;11.566;2023-02-19T09:52:06;9.14;68.56
63202;DHT22;49296;48.188;11.566;2023-02-19T09:54:35;9.17;67.81
63202;DHT22;49296;48.188;11.566;2023-02-19T09:57:03;9.20;67.66
63202;DHT22;49296;48.188;11.566;2023-02-19T09:59:35;9.32;66.37
63202;DHT22;49296;48.188;11.566;2023-02-19T10:02:14;9.30;66.06
63202;DHT22;49296;48.188;11.566;2023-02-19T10:04:42;9.34;66.76
63202;DHT22;49296;48.188;11.566;2023-02-19T10:07:11;9.41;67.13
63202;DHT22;49296;48.188;11.566;2023-02-19T10:09:38;9.58;66.99
63202;DHT22;49296;48.188;11.566;2023-02-19T10:12:12;9.73;66.99
63202;DHT22;49296;48.188;11.566;2023-02-19T10:14:44;9.89;66.74
63202;DHT22;49296;48.188;11.566;2023-02-19T10:17:19;10.01;66.41
63202;DHT22;49296;48.188;11.566;2023-02-19T10:19:48;10.17;65.82
63202;DHT22;49296;48.188;11.566;2023-02-19T10:22:14;10.31;65.70
63202;DHT22;49296;48.188;11.566;2023-02-19T10:24:42;10.42;64.93
63202;DHT22;49296;48.188;11.566;2023-02-19T10:27:11;10.30;65.01
63202;DHT22;49296;48.188;11.566;2023-02-19T10:29:38;10.35;65.24
63202;DHT22;49296;48.188;11.566;2023-02-19T10:32:14;10.45;65.18
63202;DHT22;49296;48.188;11.566;2023-02-19T10:34:45;10.42;65.56
63202;DHT22;49296;48.188;11.566;2023-02-19T10:37:14;10.49;65.28
63202;DHT22;49296;48.188;11.566;2023-02-19T10:39:42;10.58;65.56
63202;DHT22;49296;48.188;11.566;2023-02-19T10:42:15;10.53;65.10
63202;DHT22;49296;48.188;11.566;2023-02-19T10:44:45;10.70;64.75
63202;DHT22;49296;48.188;11.566;2023-02-19T10:47:20;10.68;65.30
63202;DHT22;49296;48.188;11.566;2023-02-19T10:49:49;10.77;63.04
63202;DHT22;49296;48.188;11.566;2023-02-19T10:52:19;10.70;62.38
63202;DHT22;49296;48.188;11.566;2023-02-19T10:54:49;10.66;62.33
63202;DHT22;49296;48.188;11.566;2023-02-19T10:57:28;10.79;62.28
63202;DHT22;49296;48.188;11.566;2023-02-19T11:00:19;10.70;61.28
63202;DHT22;49296;48.188;11.566;2023-02-19T11:02:48;10.72;61.35
63202;DHT22;49296;48.188;11.566;2023-02-19T11:05:17;10.81;61.43
63202;DHT22;49296;48.188;11.566;2023-02-19T11:07:47;10.87;61.76
63202;DHT22;49296;48.188;11.566;2023-02-19T11:10:25;11.06;61.37
63202;DHT22;49296;48.188;11.566;2023-02-19T11:12:54;10.86;60.85
63202;DHT22;49296;48.188;11.566;2023-02-19T11:15:24;10.81;61.20
63202;DHT22;49296;48.188;11.566;2023-02-19T11:17:57;10.75;61.39
63202;DHT22;49296;48.188;11.566;2023-02-19T11:20:25;10.79;61.11
63202;DHT22;49296;48.188;11.566;2023-02-19T11:22:58;10.80;60.87
63202;DHT22;49296;48.188;11.566;2023-02-19T11:25:26;10.76;60.60
63202;DHT22;49296;48.188;11.566;2023-02-19T11:28:05;10.75;60.40
63202;DHT22;49296;48.188;11.566;2023-02-19T11:30:38;10.81;60.63
63202;DHT22;49296;48.188;11.566;2023-02-19T11:33:25;10.87;60.70
63202;DHT22;49296;48.188;11.566;2023-02-19T11:35:58;10.86;60.96
63202;DHT22;49296;48.188;11.566;2023-02-19T11:38:26;10.75;61.37
63202;DHT22;49296;48.188;11.566;2023-02-19T11:40:58;10.75;62.30
63202;DHT22;49296;48.188;11.566;2023-02-19T11:43:43;10.65;63.52
63202;DHT22;49296;48.188;11.566;2023-02-19T11:46:16;10.40;63.86
63202;DHT22;49296;48.188;11.566;2023-02-19T11:48:58;10.14;65.95
63202;DHT22;49296;48.188;11.566;2023-02-19T11:51:44;10.03;66.31
63202;DHT22;49296;48.188;11.566;2023-02-19T11:54:29;10.07;64.88
63202;DHT22;49296;48.188;11.566;2023-02-19T11:57:10;10.10;63.40
63202;DHT22;49296;48.188;11.566;2023-02-19T11:59:46;10.13;62.40
63202;DHT22;49296;48.188;11.566;2023-02-19T12:02:26;10.07;61.73
63202;DHT22;49296;48.188;11.566;2023-02-19T12:05:29;10.04;61.99
63202;DHT22;49296;48.188;11.566;2023-02-19T12:08:29;10.13;62.21
63202;DHT22;49296;48.188;11.566;2023-02-19T12:11:10;10.14;61.97
63202;DHT22;49296;48.188;11.566;2023-02-19T12:16:37;10.28;61.79
63202;DHT22;49296;48.188;11.566;2023-02-19T12:19:21;10.40;61.36
63202;DHT22;49296;48.188;11.566;2023-02-19T12:22:03;10.45;61.53
63202;DHT22;49296;48.188;11.566;2023-02-19T12:24:52;10.40;61.57
63202;DHT22;49296;48.188;11.566;2023-02-19T12:27:36;10.51;61.26
63202;DHT22;49296;48.188;11.566;2023-02-19T12:30:54;10.52;61.83
63202;DHT22;49296;48.188;11.566;2023-02-19T12:36:20;10.48;61.46
63202;DHT22;49296;48.188;11.566;2023-02-19T12:38:54;10.48;61.95
63202;DHT22;49296;48.188;11.566;2023-02-19T12:41:31;10.34;61.92
63202;DHT22;49296;48.188;11.566;2023-02-19T12:44:07;10.28;62.61
63202;DHT22;49296;48.188;11.566;2023-02-19T12:46:38;10.09;63.45
63202;DHT22;49296;48.188;11.566;2023-02-19T12:49:11;9.96;64.20
63202;DHT22;49296;48.188;11.566;2023-02-19T12:51:42;9.83;63.12
63202;DHT22;49296;48.188;11.566;2023-02-19T12:54:15;9.92;62.04
63202;DHT22;49296;48.188;11.566;2023-02-19T12:56:47;9.87;61.95
63202;DHT22;49296;48.188;11.566;2023-02-19T12:59:21;9.87;61.23
63202;DHT22;49296;48.188;11.566;2023-02-19T13:01:53;9.89;60.69
63202;DHT22;49296;48.188;11.566;2023-02-19T13:04:29;9.92;60.68
63202;DHT22;49296;48.188;11.566;2023-02-19T13:07:01;10.10;60.86
63202;DHT22;49296;48.188;11.566;2023-02-19T13:09:37;10.14;60.74
63202;DHT22;49296;48.188;11.566;2023-02-19T13:12:11;10.11;61.58
63202;DHT22;49296;48.188;11.566;2023-02-19T13:14:43;9.99;62.18
63202;DHT22;49296;48.188;11.566;2023-02-19T13:17:18;9.92;62.55
63202;DHT22;49296;48.188;11.566;2023-02-19T13:19:49;9.94;63.12
63202;DHT22;49296;48.188;11.566;2023-02-19T13:22:18;10.11;63.07
63202;DHT22;49296;48.188;11.566;2023-02-19T13:25:08;10.18;63.18
63202;DHT22;49296;48.188;11.566;2023-02-19T13:28:02;10.44;62.91
63202;DHT22;49296;48.188;11.566;2023-02-19T13:30:42;10.45;62.68
63202;DHT22;49296;48.188;11.566;2023-02-19T13:33:22;10.59;61.86
63202;DHT22;49296;48.188;11.566;2023-02-19T13:36:08;10.52;61.56
63202;DHT22;49296;48.188;11.566;2023-02-19T13:38:37;10.53;61.22
63202;DHT22;49296;48.188;11.566;2023-02-19T13:41:16;10.56;61.26
63202;DHT22;49296;48.188;11.566;2023-02-19T13:43:44;10.46;61.32
63202;DHT22;49296;48.188;11.566;2023-02-19T13:46:14;10.37;61.75
63202;DHT22;49296;48.188;11.566;2023-02-19T13:48:42;10.35;61.62
63202;DHT22;49296;48.188;11.566;2023-02-19T13:51:47;10.38;61.62
63202;DHT22;49296;48.188;11.566;2023-02-19T13:54:22;10.42;62.04
63202;DHT22;49296;48.188;11.566;2023-02-19T13:57:25;10.11;62.59
63202;DHT22;49296;48.188;11.566;2023-02-19T13:59:53;10.22;62.83
63202;DHT22;49296;48.188;11.566;2023-02-19T14:02:26;10.21;62.26
63202;DHT22;49296;48.188;11.566;2023-02-19T14:04:56;10.17;62.59
63202;DHT22;49296;48.188;11.566;2023-02-19T14:10:56;10.22;61.61
63202;DHT22;49296;48.188;11.566;2023-02-19T14:13:56;10.09;62.05
63202;DHT22;49296;48.188;11.566;2023-02-19T14:19:14;10.01;61.96
63202;DHT22;49296;48.188;11.566;2023-02-19T14:21:41;10.14;62.06
63202;DHT22;49296;48.188;11.566;2023-02-19T14:24:10;10.03;61.87
63202;DHT22;49296;48.188;11.566;2023-02-19T14:26:38;10.09;61.84
63202;DHT22;49296;48.188;11.566;2023-02-19T14:29:08;10.09;61.82
63202;DHT22;49296;48.188;11.566;2023-02-19T14:31:37;9.92;62.42
63202;DHT22;49296;48.188;11.566;2023-02-19T14:34:12;10.01;62.82
63202;DHT22;49296;48.188;11.566;2023-02-19T14:36:42;10.00;62.61
63202;DHT22;49296;48.188;11.566;2023-02-19T14:39:15;9.97;62.89
63202;DHT22;49296;48.188;11.566;2023-02-19T14:41:45;10.00;62.78
63202;DHT22;49296;48.188;11.566;2023-02-19T14:44:17;9.89;62.92
63202;DHT22;49296;48.188;11.566;2023-02-19T14:46:53;10.06;62.78
63202;DHT22;49296;48.188;11.566;2023-02-19T14:49:25;10.03;62.98
63202;DHT22;49296;48.188;11.566;2023-02-19T14:51:56;10.14;62.86
63202;DHT22;49296;48.188;11.566;2023-02-19T14:54:34;10.00;63.19
63202;DHT22;49296;48.188;11.566;2023-02-19T14:57:04;9.87;63.45
63202;DHT22;49296;48.188;11.566;2023-02-19T14:59:34;9.89;63.53
63202;DHT22;49296;48.188;11.566;2023-02-19T15:02:02;9.83;63.48
63202;DHT22;49296;48.188;11.566;2023-02-19T15:04:34;9.93;63.36
63202;DHT22;49296;48.188;11.566;2023-02-19T15:07:05;9.90;63.55
63202;DHT22;49296;48.188;11.566;2023-02-19T15:09:36;9.92;63.45
63202;DHT22;49296;48.188;11.566;2023-02-19T15:12:06;9.97;63.24
63202;DHT22;49296;48.188;11.566;2023-02-19T15:14:35;9.99;63.53
63202;DHT22;49296;48.188;11.566;2023-02-19T15:17:04;9.93;63.43
63202;DHT22;49296;48.188;11.566;2023-02-19T15:19:32;9.90;63.59
63202;DHT22;49296;48.188;11.566;2023-02-19T15:22:01;10.07;63.50
63202;DHT22;49296;48.188;11.566;2023-02-19T15:24:27;10.03;63.32
63202;DHT22;49296;48.188;11.566;2023-02-19T15:26:54;10.06;63.23
63202;DHT22;49296;48.188;11.566;2023-02-19T15:29:23;10.04;63.49
63202;DHT22;49296;48.188;11.566;2023-02-19T15:31:54;9.93;63.62
63202;DHT22;49296;48.188;11.566;2023-02-19T15:34:22;9.81;64.07
63202;DHT22;49296;48.188;11.566;2023-02-19T15:36:51;9.73;64.28
63202;DHT22;49296;48.188;11.566;2023-02-19T15:39:21;9.69;64.36
63202;DHT22;49296;48.188;11.566;2023-02-19T15:41:51;9.79;64.29
63202;DHT22;49296;48.188;11.566;2023-02-19T15:44:28;9.93;63.93
63202;DHT22;49296;48.188;11.566;2023-02-19T15:47:03;9.81;64.13
63202;DHT22;49296;48.188;11.566;2023-02-19T15:49:38;9.85;64.27
63202;DHT22;49296;48.188;11.566;2023-02-19T15:52:09;9.81;64.52
63202;DHT22;49296;48.188;11.566;2023-02-19T15:54:47;9.73;64.69
63202;DHT22;49296;48.188;11.566;2023-02-19T15:57:19;9.55;65.01
63202;DHT22;49296;48.188;11.566;2023-02-19T15:59:49;9.72;64.83
63202;DHT22;49296;48.188;11.566;2023-02-19T16:02:20;9.72;64.49
63202;DHT22;49296;48.188;11.566;2023-02-19T16:04:47;9.54;64.77
63202;DHT22;49296;48.188;11.566;2023-02-19T16:07:24;9.59;64.63